createdAt,value
2022-08-28T00:00:38.237Z,30.25
2022-08-28T00:03:05.770Z,30.85
2022-08-28T00:05:33.698Z,25.63
2022-08-28T00:08:01.030Z,28.48
2022-08-28T00:10:29.062Z,24.17
2022-08-28T00:12:57.516Z,26.42
2022-08-28T00:15:28.181Z,25.85
2022-08-28T00:17:55.243Z,27.42
2022-08-28T00:20:23.237Z,29.85
2022-08-28T00:22:51.318Z,29.58
2022-08-28T00:25:20.054Z,26.70
2022-08-28T00:27:52.749Z,29.15
2022-08-28T00:30:29.935Z,27.38
2022-08-28T00:33:00.651Z,23.35
2022-08-28T00:35:28.581Z,23.10
2022-08-28T00:37:56.772Z,25.95
2022-08-28T00:40:30.682Z,24.88
2022-08-28T00:43:02.694Z,23.48
2022-08-28T00:45:30.902Z,25.38
2022-08-28T00:47:58.616Z,29.45
2022-08-28T00:50:29.323Z,25.13
2022-08-28T00:53:00.670Z,25.60
2022-08-28T00:57:59.501Z,25.33
2022-08-28T01:00:34.990Z,19.88
2022-08-28T01:03:03.102Z,21.75
2022-08-28T01:05:30.447Z,25.98
2022-08-28T01:07:58.971Z,22.80
2022-08-28T01:10:28.556Z,26.63
2022-08-28T01:12:57.387Z,24.73
2022-08-28T01:15:33.652Z,28.10
2022-08-28T01:18:08.050Z,22.77
2022-08-28T01:20:38.114Z,27.52
2022-08-28T01:23:42.416Z,24.45
2022-08-28T01:26:10.892Z,23.70
2022-08-28T01:28:39.346Z,24.90
2022-08-28T01:31:08.993Z,28.17
2022-08-28T01:33:35.976Z,25.38
2022-08-28T01:36:07.699Z,29.63
2022-08-28T01:38:34.730Z,22.92
2022-08-28T01:41:01.575Z,24.70
2022-08-28T01:43:28.602Z,28.13
2022-08-28T01:46:01.925Z,24.45
2022-08-28T01:48:30.957Z,26.15
2022-08-28T01:50:57.995Z,23.83
2022-08-28T01:53:30.754Z,26.13
2022-08-28T01:56:00.679Z,24.38
2022-08-28T01:58:28.427Z,22.10
2022-08-28T02:00:57.503Z,26.98
2022-08-28T02:03:24.916Z,25.05
2022-08-28T02:05:51.886Z,22.88
2022-08-28T02:08:19.023Z,29.92
2022-08-28T02:10:46.309Z,26.73
2022-08-28T02:13:13.539Z,28.02
2022-08-28T02:15:43.165Z,26.75
2022-08-28T02:18:10.602Z,31.73
2022-08-28T02:20:38.126Z,26.83
2022-08-28T02:23:06.687Z,27.45
2022-08-28T02:25:33.662Z,23.70
2022-08-28T02:28:00.573Z,25.10
2022-08-28T02:30:27.900Z,26.42
2022-08-28T02:32:54.847Z,25.42
2022-08-28T02:35:22.882Z,24.13
2022-08-28T02:37:50.143Z,27.63
2022-08-28T02:40:19.719Z,31.85
2022-08-28T02:42:46.830Z,25.13
2022-08-28T02:45:14.938Z,24.95
2022-08-28T02:47:43.890Z,26.05
2022-08-28T02:50:13.328Z,25.00
2022-08-28T02:52:41.571Z,28.73
2022-08-28T02:55:10.380Z,25.85
2022-08-28T02:57:38.247Z,23.27
2022-08-28T03:00:06.987Z,29.98
2022-08-28T03:02:33.898Z,25.00
2022-08-28T03:05:00.777Z,27.95
2022-08-28T03:07:29.347Z,29.73
2022-08-28T03:09:56.488Z,25.00
2022-08-28T03:12:27.185Z,25.13
2022-08-28T03:14:55.126Z,26.55
2022-08-28T03:17:22.244Z,23.25
2022-08-28T03:19:50.253Z,22.27
2022-08-28T03:22:39.058Z,22.48
2022-08-28T03:25:06.846Z,27.73
2022-08-28T03:27:33.984Z,23.88
2022-08-28T03:30:02.754Z,23.77
2022-08-28T03:32:31.198Z,24.40
2022-08-28T03:34:58.262Z,25.90
2022-08-28T03:37:25.236Z,22.52
2022-08-28T03:39:52.291Z,24.95
2022-08-28T03:42:19.371Z,22.65
2022-08-28T03:44:49.232Z,21.70
2022-08-28T03:47:16.706Z,21.85
2022-08-28T03:49:45.434Z,24.27
2022-08-28T03:52:12.809Z,20.73
2022-08-28T03:54:40.505Z,23.23
2022-08-28T03:57:07.841Z,25.48
2022-08-28T03:59:35.919Z,22.13
2022-08-28T04:02:02.813Z,22.92
2022-08-28T04:04:29.675Z,24.83
2022-08-28T04:06:57.521Z,27.73
2022-08-28T04:09:24.481Z,25.17
2022-08-28T04:11:52.812Z,22.40
2022-08-28T04:14:19.732Z,20.70
2022-08-28T04:16:46.664Z,26.33
2022-08-28T04:19:14.012Z,20.95
2022-08-28T04:21:40.914Z,21.58
2022-08-28T04:24:09.686Z,22.48
2022-08-28T04:26:36.945Z,24.15
2022-08-28T04:29:05.703Z,22.38
2022-08-28T04:31:33.359Z,20.50
2022-08-28T04:34:02.094Z,21.98
2022-08-28T04:36:29.460Z,27.13
2022-08-28T04:38:57.971Z,22.17
2022-08-28T04:41:25.173Z,24.75
2022-08-28T04:43:52.945Z,25.55
2022-08-28T04:46:20.498Z,26.60
2022-08-28T04:48:47.519Z,20.77
2022-08-28T04:51:15.178Z,20.35
2022-08-28T04:53:42.622Z,22.50
2022-08-28T04:56:12.364Z,26.10
2022-08-28T04:58:40.315Z,21.27
2022-08-28T05:01:11.402Z,20.15
2022-08-28T05:03:39.175Z,27.13
2022-08-28T05:06:06.395Z,20.42
2022-08-28T05:08:33.311Z,22.05
2022-08-28T05:11:27.297Z,17.45
2022-08-28T05:14:04.492Z,19.42
2022-08-28T05:16:32.202Z,21.05
2022-08-28T05:19:03.083Z,18.73
2022-08-28T05:21:29.979Z,16.10
2022-08-28T05:23:58.175Z,22.00
2022-08-28T05:26:26.765Z,15.57
2022-08-28T05:28:56.968Z,16.13
2022-08-28T05:31:25.441Z,16.42
2022-08-28T05:33:53.639Z,19.77
2022-08-28T05:36:22.816Z,17.48
2022-08-28T05:38:51.515Z,41.85
2022-08-28T05:41:24.038Z,22.60
2022-08-28T05:43:52.639Z,15.65
2022-08-28T05:46:20.745Z,17.17
2022-08-28T05:48:49.448Z,17.67
2022-08-28T05:51:20.293Z,14.45
2022-08-28T05:53:50.084Z,19.05
2022-08-28T05:56:20.255Z,17.33
2022-08-28T05:58:47.210Z,16.05
2022-08-28T06:01:16.842Z,16.67
2022-08-28T06:03:46.605Z,17.63
2022-08-28T06:06:13.805Z,14.35
2022-08-28T06:08:58.288Z,16.90
2022-08-28T06:11:26.715Z,18.92
2022-08-28T06:13:53.776Z,17.50
2022-08-28T06:16:21.525Z,13.98
2022-08-28T06:18:48.514Z,13.93
2022-08-28T06:21:15.390Z,18.70
2022-08-28T06:23:42.678Z,18.33
2022-08-28T06:26:09.607Z,16.75
2022-08-28T06:28:36.536Z,15.93
2022-08-28T06:31:23.559Z,17.42
2022-08-28T06:33:54.106Z,16.92
2022-08-28T06:36:21.273Z,18.83
2022-08-28T06:38:48.160Z,16.80
2022-08-28T06:41:18.406Z,14.10
2022-08-28T06:43:45.316Z,13.80
2022-08-28T06:46:12.430Z,15.70
2022-08-28T06:48:39.467Z,13.95
2022-08-28T06:51:09.503Z,17.65
2022-08-28T06:53:37.718Z,21.77
2022-08-28T06:56:08.848Z,24.00
2022-08-28T07:01:24.363Z,18.48
2022-08-28T07:03:53.944Z,12.55
2022-08-28T07:06:22.116Z,13.70
2022-08-28T07:08:49.150Z,18.20
2022-08-28T07:11:17.580Z,16.55
2022-08-28T07:13:46.425Z,12.45
2022-08-28T07:16:15.379Z,12.75
2022-08-28T07:18:43.112Z,13.25
2022-08-28T07:21:12.547Z,12.40
2022-08-28T07:23:41.023Z,16.50
2022-08-28T07:26:10.514Z,15.75
2022-08-28T07:28:37.811Z,18.17
2022-08-28T07:31:10.880Z,15.95
2022-08-28T07:33:39.689Z,15.68
2022-08-28T07:36:16.029Z,14.95
2022-08-28T07:38:58.434Z,13.27
2022-08-28T07:41:31.941Z,11.57
2022-08-28T07:44:17.856Z,13.77
2022-08-28T07:46:45.771Z,15.85
2022-08-28T07:49:17.194Z,12.88
2022-08-28T07:51:46.810Z,13.65
2022-08-28T07:54:15.699Z,11.40
2022-08-28T07:59:16.591Z,12.30
2022-08-28T08:01:46.706Z,13.82
2022-08-28T08:04:16.306Z,9.55
2022-08-28T08:06:44.240Z,12.90
2022-08-28T08:09:15.004Z,17.38
2022-08-28T08:11:42.758Z,16.17
2022-08-28T08:14:10.262Z,14.23
2022-08-28T08:16:39.745Z,14.43
2022-08-28T08:19:10.016Z,13.65
2022-08-28T08:21:37.505Z,10.60
2022-08-28T08:24:04.869Z,11.95
2022-08-28T08:26:32.564Z,11.95
2022-08-28T08:28:59.684Z,14.82
2022-08-28T08:31:32.343Z,14.73
2022-08-28T08:34:02.116Z,11.75
2022-08-28T08:36:30.713Z,13.65
2022-08-28T08:39:00.400Z,14.27
2022-08-28T08:41:51.217Z,16.15
2022-08-28T08:44:42.441Z,10.73
2022-08-28T08:47:22.400Z,11.80
2022-08-28T08:50:00.506Z,7.85
2022-08-28T08:52:52.169Z,13.73
2022-08-28T08:55:27.419Z,11.63
2022-08-28T08:58:03.630Z,11.30
2022-08-28T09:00:39.816Z,11.75
2022-08-28T09:03:15.258Z,8.07
2022-08-28T09:06:05.926Z,14.75
2022-08-28T09:08:49.004Z,8.75
2022-08-28T09:11:34.449Z,15.98
2022-08-28T09:14:09.421Z,13.90
2022-08-28T09:16:40.396Z,8.93
2022-08-28T09:21:45.008Z,10.13
2022-08-28T09:24:33.206Z,9.20
2022-08-28T09:27:04.204Z,9.07
2022-08-28T09:32:18.024Z,7.07
2022-08-28T09:35:01.860Z,8.32
2022-08-28T09:37:32.745Z,8.80
2022-08-28T09:43:25.510Z,7.50
2022-08-28T09:46:03.186Z,8.25
2022-08-28T09:48:36.994Z,13.68
2022-08-28T09:51:11.007Z,10.23
2022-08-28T09:53:53.628Z,11.85
2022-08-28T09:56:40.032Z,13.73
2022-08-28T09:59:09.829Z,11.27
2022-08-28T10:02:01.413Z,9.10
2022-08-28T10:04:43.160Z,12.43
2022-08-28T10:07:28.834Z,14.05
2022-08-28T10:10:19.747Z,9.77
2022-08-28T10:13:15.629Z,11.43
2022-08-28T10:16:00.983Z,7.68
2022-08-28T10:18:27.901Z,9.00
2022-08-28T10:21:18.238Z,8.38
2022-08-28T10:24:26.735Z,11.23
2022-08-28T10:27:13.574Z,10.65
2022-08-28T10:30:08.894Z,7.75
2022-08-28T10:32:56.146Z,11.70
2022-08-28T10:35:28.036Z,7.20
2022-08-28T10:38:10.424Z,9.00
2022-08-28T10:40:50.648Z,8.65
2022-08-28T10:43:25.802Z,6.17
2022-08-28T10:45:53.291Z,7.70
2022-08-28T10:48:25.186Z,6.80
2022-08-28T10:51:03.023Z,12.15
2022-08-28T10:53:42.244Z,7.90
2022-08-28T10:56:16.314Z,10.50
2022-08-28T10:58:45.083Z,10.43
2022-08-28T11:01:25.929Z,12.27
2022-08-28T11:06:41.853Z,7.68
2022-08-28T11:09:25.992Z,10.85
2022-08-28T11:12:10.248Z,9.45
2022-08-28T11:14:47.488Z,5.93
2022-08-28T11:17:25.368Z,9.68
2022-08-28T11:20:12.533Z,13.13
2022-08-28T11:22:39.639Z,11.50
2022-08-28T11:25:26.653Z,6.05
2022-08-28T11:28:15.206Z,9.90
2022-08-28T11:30:45.768Z,12.02
2022-08-28T11:33:40.759Z,10.32
2022-08-28T11:36:19.734Z,8.02
2022-08-28T11:38:53.157Z,7.18
2022-08-28T11:41:26.488Z,9.45
2022-08-28T11:44:12.465Z,10.38
2022-08-28T11:46:45.159Z,8.13
2022-08-28T11:49:26.913Z,9.52
2022-08-28T11:52:01.652Z,15.05
2022-08-28T11:54:31.304Z,7.97
2022-08-28T11:57:22.462Z,8.00
2022-08-28T12:00:00.645Z,8.55
2022-08-28T12:02:39.475Z,7.43
2022-08-28T12:05:15.637Z,9.90
2022-08-28T12:07:51.062Z,7.28
2022-08-28T12:10:20.767Z,7.38
2022-08-28T12:12:47.649Z,7.93
2022-08-28T12:15:41.863Z,8.10
2022-08-28T12:18:12.012Z,8.82
2022-08-28T12:21:02.661Z,11.93
2022-08-28T12:23:39.350Z,11.45
2022-08-28T12:26:25.524Z,8.85
2022-08-28T12:29:01.049Z,13.02
2022-08-28T12:32:00.637Z,7.30
2022-08-28T12:34:52.907Z,7.85
2022-08-28T12:37:58.830Z,6.80
2022-08-28T12:40:28.896Z,7.15
2022-08-28T12:42:58.251Z,8.90
2022-08-28T12:45:52.790Z,8.93
2022-08-28T12:48:29.514Z,6.82
2022-08-28T12:51:13.413Z,8.73
2022-08-28T12:53:46.969Z,9.90
2022-08-28T12:56:17.682Z,7.22
2022-08-28T12:58:45.187Z,9.10
2022-08-28T13:01:30.875Z,7.10
2022-08-28T13:04:17.814Z,10.82
2022-08-28T13:06:44.758Z,9.48
2022-08-28T13:09:22.299Z,8.10
2022-08-28T13:11:51.642Z,7.72
2022-08-28T13:14:37.702Z,8.30
2022-08-28T13:17:05.237Z,9.18
2022-08-28T13:19:33.186Z,12.95
2022-08-28T13:22:28.036Z,11.95
2022-08-28T13:25:00.794Z,8.43
2022-08-28T13:27:28.311Z,6.47
2022-08-28T13:30:26.904Z,8.75
2022-08-28T13:33:16.533Z,9.40
2022-08-28T13:35:43.519Z,8.25
2022-08-28T13:38:16.612Z,10.43
2022-08-28T13:40:58.545Z,7.78
2022-08-28T13:43:29.247Z,8.35
2022-08-28T13:45:56.222Z,8.57
2022-08-28T13:48:26.090Z,9.80
2022-08-28T13:51:07.526Z,8.13
2022-08-28T13:53:37.824Z,9.10
2022-08-28T13:56:05.136Z,7.05
2022-08-28T13:58:32.291Z,7.38
2022-08-28T14:00:59.544Z,11.88
2022-08-28T14:03:35.729Z,11.85
2022-08-28T14:06:18.406Z,11.25
2022-08-28T14:08:46.439Z,6.25
2022-08-28T14:11:15.406Z,9.23
2022-08-28T14:13:46.935Z,7.13
2022-08-28T14:16:26.003Z,6.68
2022-08-28T14:18:53.371Z,8.02
2022-08-28T14:21:21.471Z,9.75
2022-08-28T14:23:48.362Z,11.75
2022-08-28T14:26:15.240Z,5.85
2022-08-28T14:28:42.798Z,8.95
2022-08-28T14:31:14.260Z,10.68
2022-08-28T14:33:45.040Z,9.63
2022-08-28T14:36:23.299Z,14.20
2022-08-28T14:38:54.008Z,8.40
2022-08-28T14:41:23.250Z,6.63
2022-08-28T14:43:50.666Z,7.07
2022-08-28T14:46:30.511Z,14.65
2022-08-28T14:49:03.821Z,11.38
2022-08-28T14:51:32.739Z,6.15
2022-08-28T14:54:01.073Z,10.70
2022-08-28T14:56:31.657Z,10.43
2022-08-28T15:01:40.962Z,8.93
2022-08-28T15:04:12.503Z,10.10
2022-08-28T15:06:40.671Z,7.70
2022-08-28T15:09:07.562Z,7.65
2022-08-28T15:11:35.883Z,8.90
2022-08-28T15:14:02.859Z,11.05
2022-08-28T15:16:32.887Z,7.25
2022-08-28T15:19:01.594Z,8.80
2022-08-28T15:21:34.868Z,12.60
2022-08-28T15:24:03.824Z,8.38
2022-08-28T15:26:31.363Z,8.55
2022-08-28T15:29:02.425Z,8.75
2022-08-28T15:31:35.885Z,9.68
2022-08-28T15:34:13.290Z,8.27
2022-08-28T15:36:41.894Z,8.15
2022-08-28T15:39:28.051Z,7.57
2022-08-28T15:41:55.418Z,7.68
2022-08-28T15:44:22.345Z,8.05
2022-08-28T15:46:57.896Z,13.05
2022-08-28T15:49:26.716Z,12.07
2022-08-28T15:51:53.929Z,9.75
2022-08-28T15:54:22.687Z,8.82
2022-08-28T15:56:52.735Z,10.18
2022-08-28T15:59:21.667Z,10.65
2022-08-28T16:01:51.254Z,9.98
2022-08-28T16:04:18.205Z,11.27
2022-08-28T16:06:46.046Z,14.68
2022-08-28T16:09:13.680Z,13.50
2022-08-28T16:11:43.935Z,14.20
2022-08-28T16:14:12.290Z,20.13
2022-08-28T16:16:39.554Z,14.50
2022-08-28T16:19:13.264Z,14.88
2022-08-28T16:21:40.216Z,19.98
2022-08-28T16:24:07.239Z,13.38
2022-08-28T16:26:34.182Z,12.48
2022-08-28T16:29:01.074Z,11.63
2022-08-28T16:31:28.707Z,12.52
2022-08-28T16:33:55.735Z,9.18
2022-08-28T16:36:23.864Z,13.18
2022-08-28T16:38:59.699Z,11.80
2022-08-28T16:41:31.861Z,9.55
2022-08-28T16:43:59.286Z,12.65
2022-08-28T16:46:27.996Z,10.63
2022-08-28T16:48:55.102Z,8.93
2022-08-28T16:51:22.899Z,12.32
2022-08-28T16:53:49.814Z,13.40
2022-08-28T16:56:18.513Z,13.10
2022-08-28T16:58:45.817Z,14.00
2022-08-28T17:01:14.292Z,10.57
2022-08-28T17:03:42.379Z,14.48
2022-08-28T17:06:14.064Z,11.68
2022-08-28T17:08:41.593Z,12.35
2022-08-28T17:11:09.078Z,14.68
2022-08-28T17:13:36.657Z,12.15
2022-08-28T17:16:04.043Z,10.82
2022-08-28T17:18:31.195Z,13.50
2022-08-28T17:21:16.483Z,12.77
2022-08-28T17:23:44.095Z,13.05
2022-08-28T17:26:11.071Z,11.52
2022-08-28T17:28:37.999Z,14.40
2022-08-28T17:31:05.515Z,11.10
2022-08-28T17:33:32.599Z,12.38
2022-08-28T17:35:59.914Z,10.70
2022-08-28T17:38:26.860Z,15.70
2022-08-28T17:40:53.742Z,12.35
2022-08-28T17:43:21.270Z,13.18
2022-08-28T17:45:48.495Z,15.07
2022-08-28T17:48:17.077Z,10.48
2022-08-28T17:50:46.205Z,11.70
2022-08-28T17:53:13.323Z,10.82
2022-08-28T17:55:40.232Z,14.57
2022-08-28T17:58:07.159Z,15.32
2022-08-28T18:00:34.985Z,14.50
2022-08-28T18:03:02.785Z,18.13
2022-08-28T18:05:29.889Z,14.40
2022-08-28T18:07:57.903Z,13.45
2022-08-28T18:10:26.059Z,13.13
2022-08-28T18:12:54.128Z,15.32
2022-08-28T18:15:22.240Z,13.50
2022-08-28T18:17:50.534Z,14.80
2022-08-28T18:20:19.086Z,15.55
2022-08-28T18:22:46.578Z,17.60
2022-08-28T18:25:34.222Z,16.17
2022-08-28T18:28:01.945Z,17.42
2022-08-28T18:30:29.646Z,12.75
2022-08-28T18:32:58.308Z,15.60
2022-08-28T18:35:30.980Z,16.75
2022-08-28T18:38:00.236Z,14.35
2022-08-28T18:40:27.565Z,12.93
2022-08-28T18:42:54.836Z,19.98
2022-08-28T18:45:21.780Z,15.30
2022-08-28T18:47:48.678Z,17.77
2022-08-28T18:50:16.008Z,16.55
2022-08-28T18:52:42.951Z,14.48
2022-08-28T18:55:10.807Z,18.00
2022-08-28T18:57:37.689Z,15.45
2022-08-28T19:00:06.261Z,16.83
2022-08-28T19:02:35.345Z,14.13
2022-08-28T19:05:06.422Z,17.55
2022-08-28T19:07:33.303Z,17.45
2022-08-28T19:10:00.612Z,13.20
2022-08-28T19:12:27.595Z,16.75
2022-08-28T19:14:55.957Z,14.57
2022-08-28T19:17:23.178Z,19.48
2022-08-28T19:19:50.215Z,18.67
2022-08-28T19:22:17.915Z,17.17
2022-08-28T19:24:44.966Z,15.13
2022-08-28T19:27:11.911Z,21.58
2022-08-28T19:29:39.104Z,27.48
2022-08-28T19:32:06.929Z,20.15
2022-08-28T19:34:35.093Z,24.27
2022-08-28T19:37:02.532Z,16.42
2022-08-28T19:39:30.234Z,18.25
2022-08-28T19:41:57.173Z,23.73
2022-08-28T19:44:24.178Z,18.67
2022-08-28T19:46:51.059Z,23.08
2022-08-28T19:49:18.150Z,16.17
2022-08-28T19:51:45.056Z,20.17
2022-08-28T19:54:14.259Z,22.42
2022-08-28T19:56:41.399Z,22.20
2022-08-28T19:59:08.972Z,22.95
2022-08-28T20:01:39.577Z,17.05
2022-08-28T20:04:09.257Z,15.55
2022-08-28T20:06:37.268Z,21.25
2022-08-28T20:09:08.280Z,28.58
2022-08-28T20:11:39.580Z,20.25
2022-08-28T20:14:06.790Z,23.17
2022-08-28T20:16:40.196Z,22.92
2022-08-28T20:19:08.113Z,20.85
2022-08-28T20:21:37.157Z,18.33
2022-08-28T20:24:09.475Z,18.55
2022-08-28T20:26:36.811Z,19.83
2022-08-28T20:29:05.843Z,19.23
2022-08-28T20:31:32.809Z,16.85
2022-08-28T20:33:59.728Z,48.67
2022-08-28T20:36:27.147Z,20.65
2022-08-28T20:38:54.900Z,25.75
2022-08-28T20:41:22.681Z,23.17
2022-08-28T20:43:50.169Z,16.52
2022-08-28T20:46:18.623Z,19.65
2022-08-28T20:48:46.059Z,16.55
2022-08-28T20:51:12.970Z,18.77
2022-08-28T20:53:39.972Z,20.67
2022-08-28T20:56:09.618Z,16.73
2022-08-28T20:58:37.451Z,23.15
2022-08-28T21:01:05.703Z,20.67
2022-08-28T21:03:32.861Z,21.60
2022-08-28T21:05:59.719Z,22.67
2022-08-28T21:08:26.704Z,26.48
2022-08-28T21:10:53.581Z,20.98
2022-08-28T21:13:21.770Z,20.13
2022-08-28T21:15:48.671Z,22.60
2022-08-28T21:18:16.001Z,18.88
2022-08-28T21:20:43.300Z,19.80
2022-08-28T21:23:10.551Z,23.58
2022-08-28T21:25:39.672Z,20.30
2022-08-28T21:28:06.761Z,18.35
2022-08-28T21:30:34.275Z,19.83
2022-08-28T21:33:01.287Z,23.70
2022-08-28T21:35:28.419Z,20.38
2022-08-28T21:37:55.398Z,20.92
2022-08-28T21:40:22.426Z,22.15
2022-08-28T21:42:49.493Z,21.83
2022-08-28T21:45:16.393Z,20.92
2022-08-28T21:47:43.404Z,24.35
2022-08-28T21:50:10.914Z,20.25
2022-08-28T21:52:38.111Z,22.75
2022-08-28T21:55:11.397Z,21.40
2022-08-28T21:57:38.378Z,18.10
2022-08-28T22:00:09.785Z,23.08
2022-08-28T22:02:36.826Z,23.17
2022-08-28T22:05:03.988Z,21.83
2022-08-28T22:07:30.902Z,26.25
2022-08-28T22:09:57.847Z,23.88
2022-08-28T22:12:24.750Z,20.40
2022-08-28T22:14:51.920Z,18.95
2022-08-28T22:17:19.291Z,24.55
2022-08-28T22:19:46.759Z,22.42
2022-08-28T22:22:32.958Z,25.50
2022-08-28T22:24:59.997Z,27.95
2022-08-28T22:27:26.991Z,28.60
2022-08-28T22:29:53.833Z,23.35
2022-08-28T22:32:25.631Z,26.48
2022-08-28T22:34:54.660Z,25.55
2022-08-28T22:37:23.259Z,22.17
2022-08-28T22:39:50.185Z,19.17
2022-08-28T22:42:17.255Z,24.20
2022-08-28T22:44:44.169Z,29.95
2022-08-28T22:47:11.387Z,25.70
2022-08-28T22:49:39.453Z,21.45
2022-08-28T22:52:09.051Z,30.23
2022-08-28T22:54:35.954Z,24.08
2022-08-28T22:57:02.857Z,24.83
2022-08-28T22:59:29.730Z,24.05
2022-08-28T23:01:58.827Z,21.25
2022-08-28T23:04:29.008Z,27.52
2022-08-28T23:06:55.953Z,26.58
2022-08-28T23:09:22.903Z,26.65
2022-08-28T23:11:50.360Z,24.95
2022-08-28T23:14:17.322Z,28.70
2022-08-28T23:16:45.056Z,22.95
2022-08-28T23:19:13.376Z,27.00
2022-08-28T23:21:43.640Z,26.50
2022-08-28T23:24:16.067Z,21.95
2022-08-28T23:26:44.805Z,26.33
2022-08-28T23:29:13.259Z,27.10
2022-08-28T23:31:40.582Z,27.52
2022-08-28T23:34:08.043Z,28.02
2022-08-28T23:36:35.955Z,29.98
2022-08-28T23:39:04.395Z,29.73
2022-08-28T23:41:32.715Z,25.95
2022-08-28T23:43:59.917Z,29.38
2022-08-28T23:46:26.834Z,28.90
2022-08-28T23:48:53.802Z,25.98
2022-08-28T23:51:22.039Z,29.55
2022-08-28T23:53:50.237Z,30.10
2022-08-28T23:56:18.220Z,33.25
2022-08-28T23:58:45.583Z,29.92
